createdAt,value
2019-04-28T00:00:34.182Z,21.05
2019-04-28T00:03:03.550Z,16.85
2019-04-28T00:05:33.309Z,23.95
2019-04-28T00:08:02.670Z,30.70
2019-04-28T00:10:32.170Z,22.15
2019-04-28T00:13:01.481Z,19.20
2019-04-28T00:15:31.728Z,17.70
2019-04-28T00:18:01.894Z,26.95
2019-04-28T00:20:40.944Z,19.12
2019-04-28T00:23:12.895Z,23.87
2019-04-28T00:26:01.509Z,27.10
2019-04-28T00:28:31.173Z,23.65
2019-04-28T00:33:31.747Z,26.40
2019-04-28T00:36:01.581Z,31.12
2019-04-28T00:38:31.637Z,21.65
2019-04-28T00:41:02.392Z,23.83
2019-04-28T00:43:32.857Z,28.02
2019-04-28T00:46:03.444Z,24.90
2019-04-28T00:48:32.838Z,21.62
2019-04-28T00:51:02.171Z,20.85
2019-04-28T00:53:31.534Z,21.20
2019-04-28T00:56:02.159Z,23.15
2019-04-28T00:58:31.985Z,20.10
2019-04-28T01:01:17.859Z,31.27
2019-04-28T01:03:47.148Z,23.57
2019-04-28T01:06:16.461Z,23.30
2019-04-28T01:08:45.751Z,26.68
2019-04-28T01:11:15.144Z,27.35
2019-04-28T01:13:44.851Z,27.37
2019-04-28T01:16:16.857Z,27.13
2019-04-28T01:18:50.178Z,28.02
2019-04-28T01:21:20.336Z,17.00
2019-04-28T01:23:50.178Z,26.15
2019-04-28T01:26:20.057Z,23.50
2019-04-28T01:28:49.725Z,27.27
2019-04-28T01:31:35.712Z,26.80
2019-04-28T01:34:24.074Z,31.10
2019-04-28T01:36:53.399Z,28.60
2019-04-28T01:39:22.703Z,29.57
2019-04-28T01:41:52.041Z,27.60
2019-04-28T01:44:21.290Z,25.25
2019-04-28T01:46:50.667Z,23.80
2019-04-28T01:49:19.975Z,32.73
2019-04-28T01:51:55.298Z,25.97
2019-04-28T01:54:24.613Z,21.52
2019-04-28T01:56:53.901Z,21.25
2019-04-28T01:59:23.229Z,29.67
2019-04-28T02:01:52.544Z,24.25
2019-04-28T02:04:21.909Z,24.77
2019-04-28T02:06:51.214Z,27.10
2019-04-28T02:09:20.514Z,17.70
2019-04-28T02:11:49.871Z,22.42
2019-04-28T02:14:19.621Z,23.00
2019-04-28T02:16:50.395Z,26.15
2019-04-28T02:22:07.510Z,23.40
2019-04-28T02:24:40.338Z,26.73
2019-04-28T02:27:10.666Z,24.25
2019-04-28T02:29:41.792Z,32.00
2019-04-28T02:34:41.361Z,22.10
2019-04-28T02:37:11.441Z,25.13
2019-04-28T02:39:41.404Z,23.43
2019-04-28T02:42:11.226Z,17.00
2019-04-28T02:44:40.855Z,17.42
2019-04-28T02:47:11.149Z,27.70
2019-04-28T02:50:00.868Z,26.60
2019-04-28T02:52:47.404Z,16.90
2019-04-28T02:55:16.717Z,20.70
2019-04-28T02:57:46.007Z,25.70
2019-04-28T03:00:16.281Z,25.82
2019-04-28T03:02:45.999Z,28.60
2019-04-28T03:05:15.857Z,21.82
2019-04-28T03:07:45.996Z,22.73
2019-04-28T03:10:16.015Z,21.65
2019-04-28T03:12:46.493Z,22.37
2019-04-28T03:15:16.165Z,23.85
2019-04-28T03:17:46.129Z,25.88
2019-04-28T03:20:16.026Z,28.20
2019-04-28T03:22:46.313Z,17.75
2019-04-28T03:25:20.796Z,24.90
2019-04-28T03:27:51.731Z,18.27
2019-04-28T03:30:43.527Z,19.45
2019-04-28T03:33:18.489Z,22.27
2019-04-28T03:35:46.464Z,16.20
2019-04-28T03:38:16.428Z,14.05
2019-04-28T03:40:46.414Z,25.65
2019-04-28T03:43:16.510Z,21.87
2019-04-28T03:45:50.797Z,30.10
2019-04-28T03:48:21.121Z,22.37
2019-04-28T03:50:51.371Z,22.40
2019-04-28T03:53:20.867Z,22.57
2019-04-28T03:55:51.263Z,21.42
2019-04-28T03:58:23.624Z,21.60
2019-04-28T04:00:52.831Z,19.95
2019-04-28T04:03:23.109Z,17.87
2019-04-28T04:05:52.397Z,22.50
2019-04-28T04:08:21.698Z,19.77
2019-04-28T04:11:00.292Z,22.82
2019-04-28T04:13:37.298Z,19.52
2019-04-28T04:16:14.211Z,27.27
2019-04-28T04:18:53.203Z,20.17
2019-04-28T04:21:21.406Z,21.23
2019-04-28T04:23:50.978Z,18.75
2019-04-28T04:26:21.385Z,24.75
2019-04-28T04:28:51.657Z,25.60
2019-04-28T04:31:21.199Z,32.07
2019-04-28T04:33:50.759Z,20.90
2019-04-28T04:36:21.190Z,24.93
2019-04-28T04:38:51.350Z,20.50
2019-04-28T04:41:21.281Z,19.52
2019-04-28T04:43:51.514Z,17.48
2019-04-28T04:46:22.915Z,25.80
2019-04-28T04:48:53.369Z,24.15
2019-04-28T04:51:22.680Z,28.30
2019-04-28T04:53:51.990Z,23.85
2019-04-28T04:56:21.672Z,21.85
2019-04-28T04:58:51.230Z,20.80
2019-04-28T05:01:34.090Z,22.77
2019-04-28T05:04:16.748Z,16.27
2019-04-28T05:06:46.047Z,23.98
2019-04-28T05:09:15.324Z,20.62
2019-04-28T05:11:44.637Z,20.52
2019-04-28T05:14:13.946Z,18.57
2019-04-28T05:16:43.247Z,18.15
2019-04-28T05:19:12.566Z,22.85
2019-04-28T05:21:42.039Z,24.85
2019-04-28T05:24:22.018Z,22.95
2019-04-28T05:26:51.572Z,23.23
2019-04-28T05:29:26.583Z,18.42
2019-04-28T05:31:54.770Z,17.15
2019-04-28T05:34:24.310Z,33.10
2019-04-28T05:36:54.117Z,25.32
2019-04-28T05:39:23.628Z,19.82
2019-04-28T05:41:52.954Z,30.85
2019-04-28T05:44:22.257Z,19.87
2019-04-28T05:46:51.561Z,18.20
2019-04-28T05:49:39.578Z,19.17
2019-04-28T05:52:26.773Z,18.90
2019-04-28T05:54:59.714Z,16.67
2019-04-28T05:57:33.101Z,20.32
2019-04-28T06:00:12.990Z,20.08
2019-04-28T06:02:56.462Z,20.82
2019-04-28T06:05:20.891Z,19.73
2019-04-28T06:08:09.893Z,18.77
2019-04-28T06:10:39.923Z,12.05
2019-04-28T06:13:09.995Z,17.12
2019-04-28T06:15:39.764Z,22.43
2019-04-28T06:18:10.535Z,16.20
2019-04-28T06:20:40.663Z,23.18
2019-04-28T06:23:10.073Z,17.77
2019-04-28T06:25:39.685Z,23.27
2019-04-28T06:28:09.134Z,18.92
2019-04-28T06:30:38.466Z,15.95
2019-04-28T06:33:08.474Z,21.42
2019-04-28T06:35:37.912Z,15.63
2019-04-28T06:38:07.231Z,16.37
2019-04-28T06:40:36.813Z,21.43
2019-04-28T06:43:06.464Z,23.98
2019-04-28T06:45:35.823Z,24.25
2019-04-28T06:48:05.143Z,19.67
2019-04-28T06:50:34.439Z,18.55
2019-04-28T06:53:03.747Z,20.15
2019-04-28T06:55:33.049Z,21.07
2019-04-28T06:58:02.357Z,21.82
2019-04-28T07:00:31.663Z,22.65
2019-04-28T07:03:01.064Z,18.15
2019-04-28T07:05:30.383Z,17.52
2019-04-28T07:08:00.134Z,21.95
2019-04-28T07:10:32.088Z,20.32
2019-04-28T07:13:01.418Z,17.57
2019-04-28T07:15:30.718Z,19.23
2019-04-28T07:18:00.071Z,23.02
2019-04-28T07:20:34.083Z,15.85
2019-04-28T07:23:03.409Z,17.20
2019-04-28T07:25:32.717Z,16.67
2019-04-28T07:28:02.478Z,15.20
2019-04-28T07:30:32.828Z,14.25
2019-04-28T07:33:06.097Z,14.33
2019-04-28T07:35:35.590Z,9.90
2019-04-28T07:38:05.244Z,20.75
2019-04-28T07:40:34.790Z,12.90
2019-04-28T07:43:04.282Z,10.45
2019-04-28T07:45:33.663Z,9.98
2019-04-28T07:48:02.982Z,11.50
2019-04-28T07:50:34.555Z,18.30
2019-04-28T07:53:08.301Z,14.80
2019-04-28T07:55:37.689Z,11.75
2019-04-28T07:58:07.043Z,19.60
2019-04-28T08:00:36.364Z,14.63
2019-04-28T08:03:05.737Z,14.13
2019-04-28T08:05:35.261Z,10.38
2019-04-28T08:08:04.587Z,12.28
2019-04-28T08:10:35.458Z,10.45
2019-04-28T08:15:33.299Z,11.95
2019-04-28T08:18:02.666Z,12.70
2019-04-28T08:20:32.046Z,13.38
2019-04-28T08:23:01.505Z,12.88
2019-04-28T08:25:33.541Z,9.50
2019-04-28T08:28:02.928Z,10.80
2019-04-28T08:30:34.060Z,11.63
2019-04-28T08:33:05.089Z,11.22
2019-04-28T08:35:34.401Z,11.03
2019-04-28T08:38:03.705Z,9.68
2019-04-28T08:40:32.986Z,8.70
2019-04-28T08:43:02.313Z,9.18
2019-04-28T08:45:31.752Z,10.68
2019-04-28T08:48:01.042Z,13.28
2019-04-28T08:50:30.428Z,8.88
2019-04-28T08:53:00.065Z,13.05
2019-04-28T08:55:30.165Z,12.00
2019-04-28T08:58:00.238Z,14.80
2019-04-28T09:00:30.479Z,12.35
2019-04-28T09:03:00.535Z,10.63
2019-04-28T09:05:30.767Z,8.53
2019-04-28T09:08:00.883Z,8.63
2019-04-28T09:10:31.120Z,8.70
2019-04-28T09:13:01.355Z,8.13
2019-04-28T09:15:31.359Z,10.90
2019-04-28T09:18:01.392Z,12.98
2019-04-28T09:20:31.638Z,9.53
2019-04-28T09:23:01.853Z,8.67
2019-04-28T09:25:31.959Z,10.25
2019-04-28T09:28:02.095Z,7.87
2019-04-28T09:30:32.227Z,6.50
2019-04-28T09:33:02.331Z,9.63
2019-04-28T09:35:32.586Z,5.55
2019-04-28T09:38:02.805Z,8.03
2019-04-28T09:40:33.038Z,10.23
2019-04-28T09:43:04.630Z,8.95
2019-04-28T09:45:53.412Z,6.17
2019-04-28T09:48:25.797Z,4.50
2019-04-28T09:50:55.114Z,7.10
2019-04-28T09:53:24.414Z,4.62
2019-04-28T09:55:53.745Z,4.95
2019-04-28T09:58:23.025Z,6.03
2019-04-28T10:00:52.315Z,6.22
2019-04-28T10:03:21.634Z,5.20
2019-04-28T10:05:51.026Z,4.87
2019-04-28T10:08:20.329Z,5.78
2019-04-28T10:10:49.639Z,4.90
2019-04-28T10:13:18.963Z,5.27
2019-04-28T10:15:49.812Z,4.85
2019-04-28T10:18:19.182Z,6.00
2019-04-28T10:20:48.511Z,3.17
2019-04-28T10:23:17.806Z,5.70
2019-04-28T10:25:47.075Z,4.10
2019-04-28T10:30:46.481Z,5.80
2019-04-28T10:33:15.807Z,4.95
2019-04-28T10:35:45.095Z,5.50
2019-04-28T10:38:14.397Z,4.37
2019-04-28T10:41:03.312Z,3.47
2019-04-28T10:43:32.649Z,5.22
2019-04-28T10:46:02.014Z,2.40
2019-04-28T10:48:31.310Z,3.75
2019-04-28T10:51:01.308Z,6.70
2019-04-28T10:53:30.758Z,6.25
2019-04-28T10:56:00.238Z,3.70
2019-04-28T10:58:29.623Z,3.80
2019-04-28T11:00:58.956Z,3.02
2019-04-28T11:03:28.328Z,7.95
2019-04-28T11:05:57.693Z,5.90
2019-04-28T11:08:34.450Z,4.83
2019-04-28T11:11:05.464Z,4.58
2019-04-28T11:13:34.759Z,4.55
2019-04-28T11:16:04.224Z,6.05
2019-04-28T11:18:33.528Z,5.95
2019-04-28T11:21:02.805Z,4.42
2019-04-28T11:23:32.137Z,5.58
2019-04-28T11:26:01.441Z,6.75
2019-04-28T11:28:30.953Z,5.40
2019-04-28T11:31:00.268Z,5.05
2019-04-28T11:33:32.846Z,6.45
2019-04-28T11:36:02.146Z,5.58
2019-04-28T11:38:31.590Z,5.22
2019-04-28T11:41:00.942Z,6.08
2019-04-28T11:43:30.234Z,3.17
2019-04-28T11:45:59.530Z,3.95
2019-04-28T11:48:28.842Z,4.53
2019-04-28T11:50:58.172Z,4.78
2019-04-28T11:53:27.481Z,3.25
2019-04-28T11:55:56.787Z,3.25
2019-04-28T11:58:26.160Z,4.05
2019-04-28T12:00:55.523Z,3.67
2019-04-28T12:03:24.818Z,3.22
2019-04-28T12:05:54.150Z,3.52
2019-04-28T12:08:23.448Z,6.62
2019-04-28T12:10:55.442Z,3.47
2019-04-28T12:13:39.708Z,5.70
2019-04-28T12:16:16.137Z,3.30
2019-04-28T12:18:47.076Z,3.33
2019-04-28T12:21:16.461Z,3.05
2019-04-28T12:23:45.767Z,3.17
2019-04-28T12:26:15.060Z,7.93
2019-04-28T12:28:44.380Z,4.25
2019-04-28T12:31:13.720Z,3.08
2019-04-28T12:33:43.427Z,3.08
2019-04-28T12:36:13.729Z,2.75
2019-04-28T12:38:43.758Z,2.52
2019-04-28T12:41:13.985Z,2.25
2019-04-28T12:43:44.100Z,2.65
2019-04-28T12:46:14.226Z,2.70
2019-04-28T12:48:44.446Z,2.05
2019-04-28T12:51:14.754Z,1.72
2019-04-28T12:53:44.690Z,1.62
2019-04-28T12:56:15.540Z,2.30
2019-04-28T12:58:45.060Z,1.85
2019-04-28T13:01:19.426Z,1.27
2019-04-28T13:03:50.370Z,1.35
2019-04-28T13:06:21.352Z,1.65
2019-04-28T13:08:51.582Z,2.07
2019-04-28T13:11:20.894Z,2.80
2019-04-28T13:13:50.209Z,2.20
2019-04-28T13:16:19.527Z,1.75
2019-04-28T13:18:48.858Z,5.08
2019-04-28T13:21:18.206Z,1.95
2019-04-28T13:23:47.509Z,1.90
2019-04-28T13:26:16.806Z,4.47
2019-04-28T13:28:46.818Z,3.35
2019-04-28T13:31:17.064Z,3.25
2019-04-28T13:33:56.260Z,5.05
2019-04-28T13:36:18.434Z,2.60
2019-04-28T13:38:47.806Z,3.55
2019-04-28T13:41:17.577Z,3.22
2019-04-28T13:43:47.847Z,3.42
2019-04-28T13:46:17.927Z,4.42
2019-04-28T13:48:48.028Z,2.90
2019-04-28T13:51:18.143Z,4.78
2019-04-28T13:53:47.465Z,3.25
2019-04-28T13:56:18.485Z,1.92
2019-04-28T13:58:50.471Z,2.12
2019-04-28T14:01:24.161Z,2.60
2019-04-28T14:04:12.409Z,3.52
2019-04-28T14:06:43.394Z,5.47
2019-04-28T14:09:14.333Z,3.27
2019-04-28T14:11:43.991Z,3.65
2019-04-28T14:14:13.487Z,3.25
2019-04-28T14:16:42.822Z,3.67
2019-04-28T14:19:12.246Z,4.90
2019-04-28T14:21:41.669Z,4.70
2019-04-28T14:24:10.962Z,3.00
2019-04-28T14:26:40.319Z,5.20
2019-04-28T14:29:10.628Z,5.45
2019-04-28T14:31:40.116Z,4.27
2019-04-28T14:34:09.583Z,5.80
2019-04-28T14:36:42.352Z,3.35
2019-04-28T14:39:10.153Z,3.95
2019-04-28T14:41:40.433Z,5.67
2019-04-28T14:44:09.816Z,3.35
2019-04-28T14:46:39.196Z,3.93
2019-04-28T14:49:08.672Z,6.17
2019-04-28T14:51:37.990Z,3.00
2019-04-28T14:54:07.318Z,3.80
2019-04-28T14:56:36.697Z,4.00
2019-04-28T14:59:06.083Z,5.50
2019-04-28T15:01:45.886Z,6.97
2019-04-28T15:04:20.977Z,2.52
2019-04-28T15:06:56.190Z,7.30
2019-04-28T15:09:43.778Z,6.35
2019-04-28T15:12:13.123Z,3.60
2019-04-28T15:14:42.624Z,2.35
2019-04-28T15:17:11.951Z,2.65
2019-04-28T15:19:41.276Z,3.05
2019-04-28T15:22:10.546Z,2.80
2019-04-28T15:24:39.850Z,3.33
2019-04-28T15:27:09.173Z,4.22
2019-04-28T15:29:38.569Z,2.95
2019-04-28T15:32:07.890Z,3.02
2019-04-28T15:34:37.185Z,3.80
2019-04-28T15:37:10.138Z,3.12
2019-04-28T15:39:37.501Z,2.10
2019-04-28T15:42:06.823Z,4.20
2019-04-28T15:44:36.112Z,4.50
2019-04-28T15:47:05.424Z,2.47
2019-04-28T15:49:34.742Z,2.53
2019-04-28T15:52:04.138Z,2.72
2019-04-28T15:54:33.511Z,3.60
2019-04-28T15:57:02.922Z,2.98
2019-04-28T15:59:32.259Z,2.85
2019-04-28T16:02:01.667Z,2.95
2019-04-28T16:04:31.022Z,2.55
2019-04-28T16:07:00.358Z,3.27
2019-04-28T16:09:30.835Z,2.73
2019-04-28T16:12:00.166Z,3.17
2019-04-28T16:14:29.505Z,2.17
2019-04-28T16:16:58.807Z,1.50
2019-04-28T16:19:28.128Z,2.70
2019-04-28T16:21:57.438Z,1.57
2019-04-28T16:24:27.487Z,2.50
2019-04-28T16:26:57.706Z,1.95
2019-04-28T16:29:27.776Z,2.98
2019-04-28T16:31:58.110Z,1.62
2019-04-28T16:34:28.128Z,2.47
2019-04-28T16:36:58.357Z,1.42
2019-04-28T16:39:28.392Z,1.70
2019-04-28T16:41:58.602Z,2.47
2019-04-28T16:44:28.688Z,2.10
2019-04-28T16:46:58.967Z,2.10
2019-04-28T16:49:28.986Z,1.70
2019-04-28T16:51:59.248Z,1.42
2019-04-28T16:54:29.311Z,3.12
2019-04-28T16:57:04.143Z,2.98
2019-04-28T16:59:35.078Z,1.62
2019-04-28T17:02:06.096Z,1.67
2019-04-28T17:04:35.456Z,6.22
2019-04-28T17:07:04.872Z,4.35
2019-04-28T17:09:34.218Z,2.30
2019-04-28T17:12:03.523Z,3.42
2019-04-28T17:14:32.833Z,3.05
2019-04-28T17:17:02.200Z,1.30
2019-04-28T17:19:33.398Z,1.47
2019-04-28T17:22:02.791Z,2.05
2019-04-28T17:24:32.088Z,1.77
2019-04-28T17:27:01.400Z,2.60
2019-04-28T17:29:31.361Z,5.12
2019-04-28T17:32:01.641Z,2.30
2019-04-28T17:34:31.882Z,4.67
2019-04-28T17:37:01.946Z,1.62
2019-04-28T17:39:32.214Z,1.10
2019-04-28T17:42:02.282Z,1.34
2019-04-28T17:44:32.413Z,1.65
2019-04-28T17:47:02.557Z,2.36
2019-04-28T17:49:34.241Z,1.92
2019-04-28T17:52:05.346Z,1.25
2019-04-28T17:54:34.869Z,0.70
2019-04-28T17:57:04.859Z,0.88
2019-04-28T17:59:34.199Z,1.10
2019-04-28T18:02:14.302Z,1.07
2019-04-28T18:04:45.264Z,1.47
2019-04-28T18:07:28.190Z,1.25
2019-04-28T18:09:57.478Z,1.75
2019-04-28T18:12:26.892Z,2.17
2019-04-28T18:14:58.946Z,1.80
2019-04-28T18:17:29.976Z,1.25
2019-04-28T18:19:59.346Z,2.90
2019-04-28T18:22:28.786Z,0.75
2019-04-28T18:24:58.105Z,3.02
2019-04-28T18:27:27.415Z,2.00
2019-04-28T18:29:56.802Z,1.35
2019-04-28T18:32:27.812Z,1.57
2019-04-28T18:35:04.461Z,2.77
2019-04-28T18:37:51.556Z,0.75
2019-04-28T18:40:25.366Z,2.90
2019-04-28T18:43:08.271Z,2.02
2019-04-28T18:45:37.595Z,1.30
2019-04-28T18:48:06.922Z,2.75
2019-04-28T18:50:36.434Z,1.17
2019-04-28T18:53:06.785Z,1.03
2019-04-28T18:55:36.738Z,0.80
2019-04-28T18:58:06.978Z,1.00
2019-04-28T19:00:38.819Z,2.12
2019-04-28T19:03:08.206Z,1.42
2019-04-28T19:05:39.178Z,5.33
2019-04-28T19:08:25.159Z,3.52
2019-04-28T19:10:59.139Z,2.67
2019-04-28T19:13:30.120Z,3.55
2019-04-28T19:16:16.444Z,8.20
2019-04-28T19:18:47.448Z,0.93
2019-04-28T19:21:16.748Z,1.70
2019-04-28T19:23:46.343Z,2.87
2019-04-28T19:26:18.882Z,1.45
2019-04-28T19:28:49.864Z,2.05
2019-04-28T19:31:19.174Z,2.45
2019-04-28T19:33:48.473Z,5.75
2019-04-28T19:36:18.025Z,9.48
2019-04-28T19:38:47.419Z,4.87
2019-04-28T19:41:16.729Z,2.47
2019-04-28T19:43:46.091Z,1.98
2019-04-28T19:46:17.115Z,3.37
2019-04-28T19:48:47.345Z,2.33
2019-04-28T19:51:31.097Z,2.60
2019-04-28T19:53:49.568Z,2.90
2019-04-28T19:56:20.612Z,2.40
2019-04-28T19:59:07.503Z,3.03
2019-04-28T20:01:36.874Z,5.75
2019-04-28T20:04:06.193Z,6.47
2019-04-28T20:06:35.658Z,5.87
2019-04-28T20:09:07.631Z,4.37
2019-04-28T20:11:38.983Z,4.25
2019-04-28T20:14:09.105Z,5.53
2019-04-28T20:16:40.823Z,5.15
2019-04-28T20:19:10.202Z,6.15
2019-04-28T20:21:39.891Z,3.90
2019-04-28T20:26:38.985Z,4.90
2019-04-28T20:29:09.184Z,5.87
2019-04-28T20:31:39.174Z,6.53
2019-04-28T20:34:09.239Z,3.62
2019-04-28T20:36:40.893Z,6.47
2019-04-28T20:39:14.494Z,7.83
2019-04-28T20:41:45.455Z,7.33
2019-04-28T20:44:14.774Z,5.30
2019-04-28T20:46:44.066Z,6.08
2019-04-28T20:49:13.387Z,4.75
2019-04-28T20:51:42.680Z,6.40
2019-04-28T20:54:11.986Z,4.03
2019-04-28T20:56:41.797Z,3.98
2019-04-28T20:59:12.254Z,5.03
2019-04-28T21:01:41.748Z,6.03
2019-04-28T21:04:11.111Z,7.95
2019-04-28T21:06:40.413Z,4.00
2019-04-28T21:09:09.831Z,5.97
2019-04-28T21:11:39.929Z,6.83
2019-04-28T21:14:09.762Z,5.58
2019-04-28T21:16:39.787Z,6.30
2019-04-28T21:19:10.001Z,6.33
2019-04-28T21:21:39.871Z,4.95
2019-04-28T21:24:09.902Z,4.22
2019-04-28T21:26:40.191Z,5.10
2019-04-28T21:29:11.904Z,8.35
2019-04-28T21:31:41.217Z,4.42
2019-04-28T21:34:10.499Z,4.97
2019-04-28T21:36:40.094Z,9.73
2019-04-28T21:39:10.183Z,4.58
2019-04-28T21:41:40.176Z,8.88
2019-04-28T21:44:14.793Z,7.60
2019-04-28T21:46:45.770Z,6.67
2019-04-28T21:49:25.458Z,8.93
2019-04-28T21:51:54.830Z,8.35
2019-04-28T21:54:24.122Z,9.25
2019-04-28T21:56:54.396Z,8.80
2019-04-28T21:59:23.684Z,6.70
2019-04-28T22:01:53.054Z,6.97
2019-04-28T22:04:22.353Z,6.00
2019-04-28T22:06:51.654Z,12.20
2019-04-28T22:09:20.955Z,5.83
2019-04-28T22:11:50.352Z,5.33
2019-04-28T22:14:19.634Z,6.60
2019-04-28T22:16:48.979Z,8.40
2019-04-28T22:19:19.322Z,4.93
2019-04-28T22:21:48.610Z,6.40
2019-04-28T22:24:31.492Z,6.37
2019-04-28T22:27:00.785Z,5.30
2019-04-28T22:29:30.096Z,7.80
2019-04-28T22:31:59.391Z,5.45
2019-04-28T22:34:28.671Z,6.78
2019-04-28T22:36:59.038Z,6.47
2019-04-28T22:39:28.327Z,9.88
2019-04-28T22:41:57.632Z,6.75
2019-04-28T22:44:26.923Z,5.90
2019-04-28T22:46:56.213Z,9.33
2019-04-28T22:49:25.574Z,12.95
2019-04-28T22:51:54.897Z,14.98
2019-04-28T22:54:26.787Z,20.77
2019-04-28T22:56:57.726Z,9.57
2019-04-28T22:59:28.690Z,7.83
2019-04-28T23:02:02.464Z,8.23
2019-04-28T23:04:33.390Z,7.50
2019-04-28T23:09:31.198Z,8.08
2019-04-28T23:12:00.614Z,9.35
2019-04-28T23:14:29.907Z,8.68
2019-04-28T23:16:59.196Z,6.35
2019-04-28T23:19:31.108Z,9.13
2019-04-28T23:22:04.968Z,8.33
2019-04-28T23:24:34.268Z,9.10
2019-04-28T23:27:03.638Z,8.53
2019-04-28T23:29:32.937Z,9.48
2019-04-28T23:32:02.289Z,9.98
2019-04-28T23:34:32.630Z,8.48
2019-04-28T23:37:01.908Z,10.88
2019-04-28T23:39:31.590Z,12.58
2019-04-28T23:42:05.510Z,9.67
2019-04-28T23:44:34.803Z,10.95
2019-04-28T23:47:05.744Z,10.45
2019-04-28T23:49:35.157Z,12.63
2019-04-28T23:52:12.238Z,8.53
2019-04-28T23:54:43.549Z,9.90
2019-04-28T23:57:12.832Z,9.40
2019-04-28T23:59:42.134Z,9.10
